createdAt,value
2022-08-20T04:10:13.680Z,118.22
2022-08-20T05:13:15.730Z,410.30
2022-08-20T06:10:39.125Z,346.47
2022-08-20T06:20:56.775Z,298.13
2022-08-20T06:23:25.505Z,175.88
2022-08-20T07:08:52.939Z,194.55
2022-08-20T07:11:27.038Z,149.63
2022-08-20T07:16:24.687Z,63.80
2022-08-20T16:00:33.433Z,979.25
2022-08-20T16:03:29.438Z,719.08
2022-08-20T16:06:00.733Z,702.50
2022-08-20T16:08:48.010Z,711.03
2022-08-20T16:11:41.498Z,708.13
2022-08-20T16:14:20.148Z,882.53
2022-08-20T16:17:10.426Z,662.08
2022-08-20T16:20:00.312Z,858.50
2022-08-20T16:22:31.023Z,838.03
2022-08-20T16:24:58.766Z,655.00
2022-08-20T16:27:52.604Z,720.47
2022-08-20T16:33:14.662Z,649.42
2022-08-20T16:35:58.687Z,629.28
2022-08-20T16:38:41.468Z,666.30
2022-08-20T16:41:40.298Z,630.63
2022-08-20T16:44:21.234Z,654.38
2022-08-20T16:46:55.228Z,622.88
2022-08-20T16:49:26.038Z,617.70
2022-08-20T16:51:54.530Z,609.45
2022-08-20T16:54:28.342Z,606.85
2022-08-20T16:57:06.376Z,605.22
2022-08-20T16:59:34.168Z,596.13
2022-08-20T17:02:11.067Z,623.42
2022-08-20T17:04:59.173Z,814.42
2022-08-20T17:08:00.345Z,838.72
2022-08-20T17:10:31.488Z,723.88
2022-08-20T17:13:06.123Z,699.75
2022-08-20T17:15:35.498Z,645.85
2022-08-20T17:18:24.009Z,639.70
2022-08-20T17:20:52.182Z,614.60
2022-08-20T17:23:21.867Z,562.17
2022-08-20T17:26:01.450Z,549.25
2022-08-20T17:28:34.536Z,599.28
2022-08-20T17:31:03.048Z,549.50
2022-08-20T17:33:31.987Z,550.60
2022-08-20T17:36:08.411Z,548.53
2022-08-20T17:38:47.633Z,558.78
2022-08-20T17:41:28.391Z,557.58
2022-08-20T17:43:59.665Z,553.72
2022-08-20T17:46:29.718Z,570.67
2022-08-20T17:48:59.816Z,554.42
2022-08-20T17:51:37.942Z,545.15
2022-08-20T17:54:32.869Z,527.28
2022-08-20T17:57:06.090Z,433.73
2022-08-20T18:00:00.996Z,464.55
2022-08-20T18:02:27.739Z,485.88
2022-08-20T18:04:57.067Z,470.70
2022-08-20T18:07:31.423Z,453.45
2022-08-20T18:10:04.154Z,468.00
2022-08-20T18:12:41.230Z,455.23
2022-08-20T18:15:12.254Z,437.00
2022-08-20T18:18:10.197Z,435.50
2022-08-20T18:20:43.428Z,469.83
2022-08-20T18:23:25.676Z,418.65
2022-08-20T18:26:02.472Z,409.60
2022-08-20T18:28:50.651Z,401.00
2022-08-20T18:31:27.560Z,429.27
2022-08-20T18:33:55.952Z,255.85
2022-08-20T18:36:29.787Z,407.65
2022-08-20T18:39:03.058Z,286.38
2022-08-20T18:41:40.851Z,311.58
2022-08-20T18:44:13.042Z,516.33
2022-08-20T18:47:00.586Z,324.20
2022-08-20T18:49:37.967Z,315.35
2022-08-20T18:52:26.378Z,354.20
2022-08-20T18:54:56.833Z,463.15
2022-08-20T18:57:41.243Z,381.63
2022-08-20T19:00:18.981Z,460.00
2022-08-20T19:03:15.772Z,324.48
2022-08-20T19:05:46.323Z,498.23
2022-08-20T19:08:23.090Z,369.20
2022-08-20T19:11:27.566Z,544.50
2022-08-20T19:14:29.232Z,565.47
2022-08-20T19:17:17.493Z,555.33
2022-08-20T19:19:45.967Z,564.92
2022-08-20T19:22:22.262Z,544.08
2022-08-20T19:24:56.741Z,533.20
2022-08-20T19:27:25.768Z,553.45
2022-08-20T19:29:56.777Z,551.67
2022-08-20T19:32:26.376Z,541.13
2022-08-20T19:35:00.171Z,567.08
2022-08-20T19:37:51.103Z,595.65
2022-08-20T19:40:21.913Z,596.85
2022-08-20T19:42:52.361Z,578.65
2022-08-20T19:45:32.672Z,583.10
2022-08-20T19:48:27.609Z,320.70
2022-08-20T19:51:14.991Z,502.88
2022-08-20T19:53:47.995Z,579.75
2022-08-20T19:56:23.091Z,597.08
2022-08-20T19:59:03.786Z,727.05
2022-08-20T20:01:32.271Z,785.55
2022-08-20T20:04:02.798Z,585.97
2022-08-20T20:06:35.161Z,590.75
2022-08-20T20:09:25.563Z,606.25
2022-08-20T20:12:08.179Z,716.83
2022-08-20T20:14:38.408Z,611.53
2022-08-20T20:17:08.189Z,636.67
2022-08-20T20:19:50.346Z,658.08
2022-08-20T20:22:25.639Z,773.97
2022-08-20T20:25:02.667Z,787.70
2022-08-20T20:27:32.334Z,780.70
2022-08-20T20:30:06.608Z,745.90
2022-08-20T20:32:34.589Z,734.78
2022-08-20T20:35:05.887Z,755.38
2022-08-20T20:37:49.358Z,758.42
2022-08-20T20:40:33.992Z,755.95
2022-08-20T20:43:09.867Z,776.58
2022-08-20T20:45:41.377Z,842.72
2022-08-20T20:48:22.358Z,790.45
2022-08-20T20:50:51.307Z,798.05
2022-08-20T20:53:53.419Z,833.83
2022-08-20T20:56:35.179Z,779.30
2022-08-20T20:59:06.855Z,743.65
2022-08-20T21:01:50.210Z,773.35
2022-08-20T21:04:23.275Z,759.97
2022-08-20T21:06:52.597Z,835.53
2022-08-20T21:09:21.892Z,765.42
2022-08-20T21:11:50.429Z,738.60
2022-08-20T21:14:18.096Z,774.38
2022-08-20T21:16:45.675Z,750.97
2022-08-20T21:19:17.086Z,772.67
2022-08-20T21:21:44.610Z,768.45
2022-08-20T21:24:12.287Z,745.65
2022-08-20T21:26:40.409Z,746.42
2022-08-20T21:29:09.704Z,749.55
2022-08-20T21:31:43.713Z,746.83
2022-08-20T21:34:13.488Z,753.45
2022-08-20T21:36:41.205Z,756.83
2022-08-20T21:39:09.410Z,751.38
2022-08-20T21:41:37.818Z,756.22
2022-08-20T21:44:11.774Z,815.20
2022-08-20T21:46:39.243Z,754.78
2022-08-20T21:49:06.976Z,840.22
2022-08-20T21:51:35.968Z,785.45
2022-08-20T21:54:03.516Z,762.20
2022-08-20T21:56:33.903Z,828.95
2022-08-20T21:59:02.328Z,798.70
2022-08-20T22:01:32.859Z,782.28
2022-08-20T22:04:00.558Z,763.03
2022-08-20T22:06:28.091Z,780.15
2022-08-20T22:08:55.586Z,762.33
2022-08-20T22:11:23.032Z,770.88
2022-08-20T22:13:50.723Z,763.92
2022-08-20T22:16:20.320Z,750.10
2022-08-20T22:18:50.123Z,745.60
2022-08-20T22:21:22.147Z,758.33
2022-08-20T22:23:50.654Z,742.20
2022-08-20T22:26:19.280Z,760.78
2022-08-20T22:28:51.037Z,751.15
2022-08-20T22:31:22.892Z,752.25
2022-08-20T22:33:50.406Z,750.10
2022-08-20T22:36:18.596Z,737.50
2022-08-20T22:38:47.275Z,743.97
2022-08-20T22:41:22.995Z,751.03
2022-08-20T22:43:56.388Z,732.88
2022-08-20T22:46:27.504Z,733.53
2022-08-20T22:48:55.978Z,761.53
2022-08-20T22:51:30.130Z,697.60
2022-08-20T22:53:58.826Z,803.28
2022-08-20T22:56:27.279Z,735.10
2022-08-20T22:58:59.559Z,821.33
2022-08-20T23:01:27.681Z,924.83
2022-08-20T23:04:01.632Z,822.65
2022-08-20T23:06:30.193Z,868.50
2022-08-20T23:08:57.845Z,797.35
2022-08-20T23:11:26.681Z,777.05
2022-08-20T23:13:54.142Z,791.15
2022-08-20T23:16:21.691Z,752.47
2022-08-20T23:18:49.082Z,787.03
2022-08-20T23:21:17.432Z,834.15
2022-08-20T23:23:44.786Z,766.17
2022-08-20T23:26:19.255Z,811.15
2022-08-20T23:28:46.934Z,745.10
2022-08-20T23:31:14.978Z,742.00
2022-08-20T23:33:44.834Z,738.85
2022-08-20T23:36:14.528Z,744.45
2022-08-20T23:38:42.052Z,740.88
2022-08-20T23:41:09.362Z,741.65
2022-08-20T23:43:38.063Z,756.75
2022-08-20T23:46:07.162Z,754.78
2022-08-20T23:48:35.759Z,758.33
2022-08-20T23:51:03.216Z,772.72
2022-08-20T23:53:31.083Z,816.78
2022-08-20T23:55:58.532Z,733.17
2022-08-20T23:58:26.135Z,738.33
